createdAt,value
2023-01-12T00:01:08.197Z,6.20
2023-01-12T00:03:34.566Z,6.16
2023-01-12T00:06:01.248Z,6.13
2023-01-12T00:08:27.627Z,6.19
2023-01-12T00:10:57.150Z,6.14
2023-01-12T00:13:23.515Z,6.17
2023-01-12T00:16:08.778Z,6.12
2023-01-12T00:18:35.214Z,6.13
2023-01-12T00:21:01.566Z,6.11
2023-01-12T00:23:29.233Z,6.15
2023-01-12T00:25:55.627Z,6.20
2023-01-12T00:28:22.049Z,6.32
2023-01-12T00:30:48.444Z,6.43
2023-01-12T00:33:14.836Z,6.47
2023-01-12T00:35:41.198Z,6.50
2023-01-12T00:38:07.576Z,6.46
2023-01-12T00:40:36.337Z,6.56
2023-01-12T00:43:21.913Z,6.56
2023-01-12T00:45:51.390Z,6.52
2023-01-12T00:48:17.797Z,6.61
2023-01-12T00:50:46.304Z,6.53
2023-01-12T00:53:13.378Z,6.53
2023-01-12T00:55:39.797Z,6.58
2023-01-12T00:58:06.199Z,6.49
2023-01-12T01:00:32.571Z,6.48
2023-01-12T01:02:58.966Z,6.58
2023-01-12T01:05:25.364Z,6.61
2023-01-12T01:07:51.702Z,6.51
2023-01-12T01:10:18.230Z,6.58
2023-01-12T01:12:44.647Z,6.50
2023-01-12T01:15:11.219Z,6.57
2023-01-12T01:17:37.581Z,6.56
2023-01-12T01:20:04.723Z,6.61
2023-01-12T01:22:31.050Z,6.54
2023-01-12T01:24:57.422Z,6.55
2023-01-12T01:27:23.851Z,6.58
2023-01-12T01:29:50.206Z,6.63
2023-01-12T01:32:16.589Z,6.74
2023-01-12T01:34:43.139Z,6.73
2023-01-12T01:37:09.652Z,6.67
2023-01-12T01:39:35.995Z,6.73
2023-01-12T01:42:02.373Z,6.67
2023-01-12T01:44:31.675Z,6.71
2023-01-12T01:47:00.842Z,6.76
2023-01-12T01:49:41.568Z,6.76
2023-01-12T01:52:24.427Z,6.82
2023-01-12T01:54:55.682Z,6.91
2023-01-12T01:57:26.435Z,6.77
2023-01-12T01:59:56.679Z,6.67
2023-01-12T02:02:25.429Z,6.76
2023-01-12T02:04:54.238Z,6.77
2023-01-12T02:07:20.695Z,6.81
2023-01-12T02:09:47.045Z,6.81
2023-01-12T02:12:32.985Z,6.76
2023-01-12T02:15:18.291Z,6.78
2023-01-12T02:18:10.486Z,6.79
2023-01-12T02:21:00.700Z,6.77
2023-01-12T02:23:57.707Z,6.77
2023-01-12T02:26:50.988Z,6.67
2023-01-12T02:29:40.110Z,6.70
2023-01-12T02:32:18.103Z,6.66
2023-01-12T02:34:55.038Z,6.54
2023-01-12T02:37:43.388Z,6.57
2023-01-12T02:40:21.458Z,6.55
2023-01-12T02:43:04.281Z,6.47
2023-01-12T02:45:39.811Z,6.41
2023-01-12T02:48:15.146Z,6.38
2023-01-12T02:51:05.712Z,6.44
2023-01-12T02:53:52.149Z,6.49
2023-01-12T02:56:24.223Z,6.35
2023-01-12T02:58:58.316Z,6.44
2023-01-12T03:01:27.187Z,6.46
2023-01-12T03:04:00.405Z,6.33
2023-01-12T03:06:38.705Z,6.45
2023-01-12T03:09:05.123Z,6.42
2023-01-12T03:11:31.615Z,6.51
2023-01-12T03:14:02.550Z,6.38
2023-01-12T03:16:33.451Z,6.40
2023-01-12T03:19:09.320Z,6.41
2023-01-12T03:21:40.147Z,6.46
2023-01-12T03:24:11.005Z,6.46
2023-01-12T03:26:41.921Z,6.52
2023-01-12T03:29:25.539Z,6.61
2023-01-12T03:31:52.319Z,6.54
2023-01-12T03:34:18.949Z,6.60
2023-01-12T03:37:10.350Z,6.80
2023-01-12T03:39:43.155Z,6.65
2023-01-12T03:42:22.237Z,6.62
2023-01-12T03:44:56.477Z,6.56
2023-01-12T03:47:26.991Z,6.62
2023-01-12T03:50:03.450Z,6.65
2023-01-12T03:52:31.034Z,6.70
2023-01-12T03:54:59.476Z,6.68
2023-01-12T03:57:26.677Z,6.78
2023-01-12T03:59:53.769Z,6.82
2023-01-12T04:02:20.382Z,6.79
2023-01-12T04:04:46.802Z,6.74
2023-01-12T04:07:13.211Z,6.89
2023-01-12T04:09:39.576Z,6.83
2023-01-12T04:12:11.923Z,6.76
2023-01-12T04:14:40.053Z,6.77
2023-01-12T04:17:08.009Z,6.84
2023-01-12T04:19:34.364Z,6.97
2023-01-12T04:22:19.354Z,6.93
2023-01-12T04:24:45.980Z,6.86
2023-01-12T04:27:12.410Z,6.91
2023-01-12T04:29:38.812Z,7.09
2023-01-12T04:32:05.547Z,7.17
2023-01-12T04:34:31.991Z,7.04
2023-01-12T04:36:58.352Z,7.10
2023-01-12T04:39:24.788Z,7.00
2023-01-12T04:41:51.166Z,7.01
2023-01-12T04:44:17.572Z,7.05
2023-01-12T04:46:43.944Z,7.03
2023-01-12T04:49:10.341Z,7.08
2023-01-12T04:51:36.708Z,7.21
2023-01-12T04:54:03.111Z,7.02
2023-01-12T04:56:31.021Z,7.08
2023-01-12T04:59:01.338Z,7.14
2023-01-12T05:01:29.436Z,7.05
2023-01-12T05:03:57.960Z,7.02
2023-01-12T05:06:24.740Z,7.08
2023-01-12T05:09:09.976Z,7.20
2023-01-12T05:11:36.332Z,7.07
2023-01-12T05:14:03.689Z,6.99
2023-01-12T05:16:30.326Z,6.91
2023-01-12T05:18:57.052Z,7.00
2023-01-12T05:21:24.397Z,6.96
2023-01-12T05:23:53.552Z,7.01
2023-01-12T05:26:20.322Z,7.16
2023-01-12T05:28:50.958Z,7.10
2023-01-12T05:31:19.416Z,7.21
2023-01-12T05:33:46.241Z,7.07
2023-01-12T05:36:14.700Z,7.04
2023-01-12T05:38:41.134Z,7.03
2023-01-12T05:41:10.166Z,7.07
2023-01-12T05:43:51.528Z,7.05
2023-01-12T05:46:22.902Z,7.03
2023-01-12T05:48:50.120Z,7.04
2023-01-12T05:51:18.804Z,7.10
2023-01-12T05:53:45.560Z,7.04
2023-01-12T05:56:17.796Z,7.11
2023-01-12T05:58:52.818Z,7.06
2023-01-12T06:01:19.859Z,7.15
2023-01-12T06:03:54.034Z,7.17
2023-01-12T06:06:21.887Z,7.08
2023-01-12T06:08:50.648Z,7.04
2023-01-12T06:11:37.707Z,7.11
2023-01-12T06:14:04.979Z,7.06
2023-01-12T06:16:31.698Z,7.18
2023-01-12T06:18:58.208Z,7.11
2023-01-12T06:21:24.832Z,7.09
2023-01-12T06:23:51.895Z,7.12
2023-01-12T06:26:18.277Z,7.16
2023-01-12T06:28:44.708Z,7.22
2023-01-12T06:31:13.017Z,7.21
2023-01-12T06:33:40.068Z,7.13
2023-01-12T06:36:06.958Z,7.17
2023-01-12T06:38:35.148Z,7.12
2023-01-12T06:41:06.631Z,7.14
2023-01-12T06:43:33.244Z,7.19
2023-01-12T06:45:59.899Z,7.17
2023-01-12T06:48:26.369Z,7.17
2023-01-12T06:51:05.800Z,7.32
2023-01-12T06:53:32.193Z,7.29
2023-01-12T06:55:58.576Z,7.21
2023-01-12T06:58:24.949Z,7.28
2023-01-12T07:00:51.451Z,7.20
2023-01-12T07:03:19.106Z,7.28
2023-01-12T07:05:46.118Z,7.22
2023-01-12T07:08:15.973Z,7.28
2023-01-12T07:10:42.838Z,7.28
2023-01-12T07:13:09.205Z,7.23
2023-01-12T07:15:35.648Z,7.35
2023-01-12T07:18:02.281Z,7.29
2023-01-12T07:20:28.754Z,7.33
2023-01-12T07:22:55.993Z,7.49
2023-01-12T07:25:23.126Z,7.45
2023-01-12T07:27:51.694Z,7.40
2023-01-12T07:30:21.802Z,7.41
2023-01-12T07:32:49.372Z,7.48
2023-01-12T07:35:16.553Z,7.52
2023-01-12T07:37:50.485Z,7.58
2023-01-12T07:40:17.504Z,7.63
2023-01-12T07:42:43.847Z,7.64
2023-01-12T07:45:10.730Z,7.67
2023-01-12T07:47:37.111Z,7.73
2023-01-12T07:50:04.096Z,7.89
2023-01-12T07:52:30.920Z,7.83
2023-01-12T07:54:57.587Z,7.90
2023-01-12T07:57:24.201Z,7.87
2023-01-12T07:59:50.580Z,7.85
2023-01-12T08:02:17.140Z,8.08
2023-01-12T08:04:44.541Z,8.07
2023-01-12T08:07:11.381Z,8.05
2023-01-12T08:09:37.926Z,8.15
2023-01-12T08:12:05.984Z,8.20
2023-01-12T08:14:37.224Z,8.13
2023-01-12T08:17:08.032Z,8.26
2023-01-12T08:19:40.881Z,8.21
2023-01-12T08:22:12.555Z,8.25
2023-01-12T08:24:48.160Z,8.24
2023-01-12T08:27:18.298Z,8.32
2023-01-12T08:29:48.578Z,8.35
2023-01-12T08:32:18.353Z,8.33
2023-01-12T08:34:48.603Z,8.48
2023-01-12T08:37:18.697Z,8.35
2023-01-12T08:39:45.764Z,8.47
2023-01-12T08:42:12.552Z,8.51
2023-01-12T08:44:39.010Z,8.42
2023-01-12T08:47:16.002Z,8.52
2023-01-12T08:49:42.367Z,8.60
2023-01-12T08:52:09.009Z,8.56
2023-01-12T08:54:36.042Z,8.60
2023-01-12T08:57:02.406Z,8.61
2023-01-12T08:59:28.758Z,8.63
2023-01-12T09:01:55.244Z,8.65
2023-01-12T09:04:21.876Z,8.65
2023-01-12T09:06:48.640Z,8.67
2023-01-12T09:09:17.261Z,8.62
2023-01-12T09:11:44.467Z,8.75
2023-01-12T09:14:12.401Z,8.79
2023-01-12T09:16:39.415Z,8.80
2023-01-12T09:19:06.191Z,8.85
2023-01-12T09:21:35.710Z,8.86
2023-01-12T09:24:02.036Z,8.86
2023-01-12T09:26:32.158Z,8.97
2023-01-12T09:29:04.264Z,8.88
2023-01-12T09:31:33.106Z,8.89
2023-01-12T09:34:00.117Z,8.94
2023-01-12T09:36:28.789Z,8.87
2023-01-12T09:38:55.687Z,8.85
2023-01-12T09:41:49.956Z,8.98
2023-01-12T09:44:36.870Z,9.07
2023-01-12T09:47:07.610Z,8.98
2023-01-12T09:49:40.142Z,9.06
2023-01-12T09:52:24.635Z,9.11
2023-01-12T09:54:52.981Z,9.09
2023-01-12T09:57:57.110Z,9.05
2023-01-12T10:00:23.655Z,9.04
2023-01-12T10:02:54.960Z,9.02
2023-01-12T10:05:39.851Z,9.03
2023-01-12T10:08:14.937Z,9.00
2023-01-12T10:10:49.853Z,9.03
2023-01-12T10:13:16.955Z,9.02
2023-01-12T10:15:51.457Z,9.07
2023-01-12T10:18:26.881Z,9.06
2023-01-12T10:20:53.894Z,9.16
2023-01-12T10:23:24.630Z,9.14
2023-01-12T10:26:02.612Z,9.21
2023-01-12T10:28:33.197Z,9.07
2023-01-12T10:31:00.546Z,9.08
2023-01-12T10:33:29.828Z,9.11
2023-01-12T10:36:01.324Z,9.14
2023-01-12T10:38:31.301Z,9.16
2023-01-12T10:41:17.178Z,9.10
2023-01-12T10:43:46.829Z,9.22
2023-01-12T10:46:21.378Z,9.24
2023-01-12T10:48:54.264Z,9.28
2023-01-12T10:51:28.477Z,9.17
2023-01-12T10:54:09.106Z,9.20
2023-01-12T10:56:39.315Z,9.23
2023-01-12T10:59:21.481Z,9.21
2023-01-12T11:01:51.127Z,9.14
2023-01-12T11:04:23.635Z,9.20
2023-01-12T11:07:05.001Z,9.20
2023-01-12T11:09:32.009Z,9.20
2023-01-12T11:12:03.626Z,9.23
2023-01-12T11:14:33.163Z,9.24
2023-01-12T11:17:19.684Z,9.18
2023-01-12T11:19:48.711Z,9.17
2023-01-12T11:22:27.420Z,9.20
2023-01-12T11:25:11.521Z,9.15
2023-01-12T11:27:43.903Z,9.22
2023-01-12T11:30:20.862Z,9.17
2023-01-12T11:32:57.648Z,9.11
2023-01-12T11:35:37.146Z,9.20
2023-01-12T11:38:11.053Z,9.15
2023-01-12T11:40:38.834Z,9.26
2023-01-12T11:43:41.967Z,9.14
2023-01-12T11:46:18.951Z,9.10
2023-01-12T11:48:55.045Z,9.06
2023-01-12T11:51:21.486Z,8.98
2023-01-12T11:53:47.844Z,8.96
2023-01-12T11:56:23.521Z,8.91
2023-01-12T11:58:54.861Z,8.86
2023-01-12T12:01:35.659Z,8.87
2023-01-12T12:04:21.360Z,8.92
2023-01-12T12:07:07.898Z,8.89
2023-01-12T12:09:49.546Z,8.81
2023-01-12T12:12:39.534Z,8.85
2023-01-12T12:15:25.625Z,8.75
2023-01-12T12:18:19.983Z,8.74
2023-01-12T12:20:49.463Z,8.74
2023-01-12T12:23:54.557Z,8.74
2023-01-12T12:26:30.713Z,8.56
2023-01-12T12:29:12.066Z,8.55
2023-01-12T12:31:57.267Z,8.52
2023-01-12T12:35:01.345Z,8.52
2023-01-12T12:37:41.698Z,8.38
2023-01-12T12:40:27.057Z,8.38
2023-01-12T12:43:28.867Z,8.36
2023-01-12T12:46:28.067Z,8.23
2023-01-12T12:49:05.291Z,8.24
2023-01-12T12:51:34.648Z,8.13
2023-01-12T12:54:03.995Z,8.14
2023-01-12T12:56:33.277Z,8.06
2023-01-12T12:59:04.187Z,8.02
2023-01-12T13:01:30.587Z,8.03
2023-01-12T13:03:59.166Z,8.12
2023-01-12T13:06:35.648Z,8.11
2023-01-12T13:09:22.230Z,8.00
2023-01-12T13:12:08.817Z,7.97
2023-01-12T13:14:36.763Z,8.04
2023-01-12T13:17:25.881Z,8.02
2023-01-12T13:20:08.294Z,7.98
2023-01-12T13:22:39.919Z,8.10
2023-01-12T13:25:15.603Z,8.04
2023-01-12T13:28:00.832Z,8.10
2023-01-12T13:30:30.302Z,8.01
2023-01-12T13:33:16.696Z,8.04
2023-01-12T13:35:46.305Z,7.91
2023-01-12T13:38:20.191Z,7.95
2023-01-12T13:40:55.933Z,7.94
2023-01-12T13:43:34.257Z,7.99
2023-01-12T13:46:12.650Z,7.94
2023-01-12T13:48:44.446Z,7.91
2023-01-12T13:51:22.748Z,7.94
2023-01-12T13:54:04.213Z,7.93
2023-01-12T13:56:31.373Z,7.96
2023-01-12T13:59:03.814Z,7.96
2023-01-12T14:01:33.674Z,7.91
2023-01-12T14:04:25.439Z,8.16
2023-01-12T14:07:23.071Z,7.98
2023-01-12T14:10:19.086Z,8.00
2023-01-12T14:13:07.575Z,7.95
2023-01-12T14:15:56.364Z,8.03
2023-01-12T14:18:29.164Z,7.96
2023-01-12T14:20:58.134Z,8.02
2023-01-12T14:23:28.739Z,8.01
2023-01-12T14:26:03.976Z,8.02
2023-01-12T14:28:31.264Z,8.26
2023-01-12T14:30:58.231Z,8.13
2023-01-12T14:33:30.654Z,8.11
2023-01-12T14:36:06.856Z,8.04
2023-01-12T14:38:36.954Z,8.08
2023-01-12T14:41:27.558Z,8.04
2023-01-12T14:44:13.166Z,8.06
2023-01-12T14:46:48.075Z,8.15
2023-01-12T14:49:31.071Z,8.19
2023-01-12T14:52:16.312Z,8.17
2023-01-12T14:54:43.415Z,8.13
2023-01-12T14:57:27.562Z,8.10
2023-01-12T14:59:54.158Z,8.12
2023-01-12T15:02:31.050Z,8.15
2023-01-12T15:05:09.535Z,8.10
2023-01-12T15:07:53.716Z,8.14
2023-01-12T15:10:20.057Z,8.18
2023-01-12T15:12:54.067Z,8.15
2023-01-12T15:15:22.206Z,8.29
2023-01-12T15:18:08.756Z,8.24
2023-01-12T15:20:56.878Z,8.34
2023-01-12T15:23:44.782Z,8.33
2023-01-12T15:26:11.160Z,8.27
2023-01-12T15:28:37.574Z,8.36
2023-01-12T15:31:03.968Z,8.36
2023-01-12T15:33:30.620Z,8.39
2023-01-12T15:35:58.221Z,8.40
2023-01-12T15:38:28.272Z,8.39
2023-01-12T15:40:54.755Z,8.42
2023-01-12T15:43:21.111Z,8.47
2023-01-12T15:45:47.786Z,8.46
2023-01-12T15:48:14.407Z,8.53
2023-01-12T15:50:44.153Z,8.42
2023-01-12T15:53:17.267Z,8.43
2023-01-12T15:55:43.669Z,8.42
2023-01-12T15:58:10.164Z,8.51
2023-01-12T16:00:37.018Z,8.58
2023-01-12T16:03:04.197Z,8.69
2023-01-12T16:05:30.595Z,8.55
2023-01-12T16:07:57.181Z,8.55
2023-01-12T16:10:24.104Z,8.48
2023-01-12T16:12:50.652Z,8.40
2023-01-12T16:15:22.819Z,8.43
2023-01-12T16:17:50.148Z,8.47
2023-01-12T16:20:19.094Z,8.51
2023-01-12T16:22:46.840Z,8.47
2023-01-12T16:25:14.252Z,8.45
2023-01-12T16:27:40.696Z,8.55
2023-01-12T16:30:12.347Z,8.45
2023-01-12T16:32:38.817Z,8.49
2023-01-12T16:35:05.395Z,8.58
2023-01-12T16:37:33.292Z,8.55
2023-01-12T16:40:00.909Z,8.41
2023-01-12T16:42:27.922Z,8.50
2023-01-12T16:44:54.407Z,8.49
2023-01-12T16:47:20.927Z,8.52
2023-01-12T16:49:49.390Z,8.50
2023-01-12T16:52:17.549Z,8.57
2023-01-12T16:54:44.026Z,8.68
2023-01-12T16:57:12.383Z,8.60
2023-01-12T16:59:39.084Z,8.68
2023-01-12T17:02:08.219Z,8.69
2023-01-12T17:04:36.886Z,8.69
2023-01-12T17:07:05.481Z,8.83
2023-01-12T17:09:34.540Z,8.73
2023-01-12T17:12:01.117Z,8.72
2023-01-12T17:14:28.254Z,8.82
2023-01-12T17:16:57.841Z,8.91
2023-01-12T17:19:27.645Z,8.94
2023-01-12T17:21:54.881Z,8.82
2023-01-12T17:24:22.172Z,8.87
2023-01-12T17:26:51.201Z,8.85
2023-01-12T17:29:18.056Z,8.88
2023-01-12T17:31:45.050Z,8.90
2023-01-12T17:34:13.121Z,8.90
2023-01-12T17:36:40.098Z,8.86
2023-01-12T17:39:06.747Z,8.86
2023-01-12T17:41:51.745Z,8.95
2023-01-12T17:44:18.264Z,8.92
2023-01-12T17:46:45.219Z,8.94
2023-01-12T17:49:12.464Z,8.97
2023-01-12T17:51:39.759Z,8.97
2023-01-12T17:54:07.889Z,8.96
2023-01-12T17:56:35.423Z,9.02
2023-01-12T17:59:03.103Z,9.03
2023-01-12T18:01:32.004Z,9.00
2023-01-12T18:03:59.769Z,9.08
2023-01-12T18:06:27.233Z,9.06
2023-01-12T18:08:56.418Z,9.07
2023-01-12T18:11:23.642Z,9.13
2023-01-12T18:13:50.082Z,9.17
2023-01-12T18:16:17.065Z,9.25
2023-01-12T18:18:44.114Z,9.26
2023-01-12T18:21:14.132Z,9.25
2023-01-12T18:23:43.004Z,9.29
2023-01-12T18:26:12.388Z,9.29
2023-01-12T18:28:38.823Z,9.31
2023-01-12T18:31:10.780Z,9.26
2023-01-12T18:33:37.822Z,9.33
2023-01-12T18:36:31.331Z,9.33
2023-01-12T18:38:57.726Z,9.24
2023-01-12T18:41:42.793Z,9.30
2023-01-12T18:44:09.647Z,9.25
2023-01-12T18:47:00.327Z,9.22
2023-01-12T18:49:29.214Z,9.28
2023-01-12T18:52:14.552Z,9.23
2023-01-12T18:54:45.252Z,9.29
2023-01-12T18:57:13.920Z,9.32
2023-01-12T18:59:41.904Z,9.28
2023-01-12T19:02:11.624Z,9.26
2023-01-12T19:04:50.088Z,9.23
2023-01-12T19:07:17.457Z,9.24
2023-01-12T19:09:43.948Z,9.25
2023-01-12T19:12:10.300Z,9.34
2023-01-12T19:14:55.167Z,9.33
2023-01-12T19:17:27.386Z,9.23
2023-01-12T19:19:54.340Z,9.38
2023-01-12T19:22:39.574Z,9.29
2023-01-12T19:25:25.500Z,9.34
2023-01-12T19:28:10.450Z,9.26
2023-01-12T19:30:38.122Z,9.35
2023-01-12T19:33:22.484Z,9.40
2023-01-12T19:35:48.937Z,9.41
2023-01-12T19:38:15.472Z,9.45
2023-01-12T19:40:49.573Z,9.40
2023-01-12T19:43:20.286Z,9.46
2023-01-12T19:45:48.613Z,9.40
2023-01-12T19:48:17.049Z,9.41
2023-01-12T19:50:44.840Z,9.46
2023-01-12T19:53:18.556Z,9.40
2023-01-12T19:55:45.660Z,9.52
2023-01-12T19:58:12.807Z,9.52
2023-01-12T20:00:43.356Z,9.57
2023-01-12T20:03:20.981Z,9.64
2023-01-12T20:05:50.961Z,9.71
2023-01-12T20:08:22.689Z,9.61
2023-01-12T20:10:54.175Z,9.59
2023-01-12T20:13:20.569Z,9.64
2023-01-12T20:15:48.820Z,9.74
2023-01-12T20:18:16.290Z,9.57
2023-01-12T20:20:43.167Z,9.54
2023-01-12T20:23:10.992Z,9.52
2023-01-12T20:25:39.376Z,9.63
2023-01-12T20:28:06.259Z,9.49
2023-01-12T20:30:37.965Z,9.62
2023-01-12T20:33:06.068Z,9.63
2023-01-12T20:35:32.850Z,9.63
2023-01-12T20:37:59.255Z,9.59
2023-01-12T20:40:25.675Z,9.66
2023-01-12T20:42:52.110Z,9.64
2023-01-12T20:45:19.014Z,9.67
2023-01-12T20:47:45.517Z,9.73
2023-01-12T20:50:14.164Z,9.70
2023-01-12T20:52:41.505Z,9.73
2023-01-12T20:55:08.463Z,9.73
2023-01-12T20:57:38.644Z,9.69
2023-01-12T21:00:09.704Z,9.82
2023-01-12T21:02:40.520Z,9.77
2023-01-12T21:05:07.859Z,9.76
2023-01-12T21:07:34.273Z,9.90
2023-01-12T21:10:00.709Z,9.88
2023-01-12T21:12:27.782Z,9.91
2023-01-12T21:14:54.582Z,9.89
2023-01-12T21:17:21.288Z,9.77
2023-01-12T21:19:47.902Z,9.95
2023-01-12T21:22:14.298Z,9.84
2023-01-12T21:24:40.736Z,9.92
2023-01-12T21:27:07.108Z,9.95
2023-01-12T21:29:34.120Z,9.90
2023-01-12T21:32:01.279Z,9.99
2023-01-12T21:34:27.901Z,10.00
2023-01-12T21:36:54.329Z,9.98
2023-01-12T21:39:21.947Z,9.98
2023-01-12T21:42:06.927Z,10.06
2023-01-12T21:44:33.354Z,10.09
2023-01-12T21:46:59.968Z,10.03
2023-01-12T21:49:26.396Z,10.00
2023-01-12T21:51:52.785Z,10.05
2023-01-12T21:54:19.206Z,9.90
2023-01-12T21:56:45.562Z,9.96
2023-01-12T21:59:12.552Z,9.97
2023-01-12T22:01:39.136Z,10.00
2023-01-12T22:04:05.659Z,10.01
2023-01-12T22:06:32.123Z,10.05
2023-01-12T22:08:58.851Z,10.05
2023-01-12T22:11:25.430Z,10.17
2023-01-12T22:13:51.846Z,10.10
2023-01-12T22:16:18.434Z,10.05
2023-01-12T22:18:49.554Z,10.05
2023-01-12T22:21:17.796Z,10.12
2023-01-12T22:23:44.540Z,10.15
2023-01-12T22:26:12.898Z,10.17
2023-01-12T22:28:41.375Z,10.23
2023-01-12T22:31:13.911Z,10.19
2023-01-12T22:33:44.600Z,10.13
2023-01-12T22:36:10.968Z,10.15
2023-01-12T22:38:37.339Z,10.11
2023-01-12T22:41:08.383Z,10.22
2023-01-12T22:43:40.642Z,10.09
2023-01-12T22:46:19.083Z,10.06
2023-01-12T22:48:49.672Z,10.11
2023-01-12T22:51:17.312Z,10.10
2023-01-12T22:53:44.279Z,10.13
2023-01-12T22:56:12.031Z,10.04
2023-01-12T22:58:39.610Z,10.10
2023-01-12T23:01:09.175Z,10.08
2023-01-12T23:03:37.179Z,10.16
2023-01-12T23:06:05.049Z,10.09
2023-01-12T23:08:32.359Z,10.08
2023-01-12T23:11:07.669Z,10.02
2023-01-12T23:13:35.345Z,10.10
2023-01-12T23:16:05.266Z,10.05
2023-01-12T23:18:33.546Z,10.12
2023-01-12T23:21:04.237Z,10.08
2023-01-12T23:23:31.098Z,10.11
2023-01-12T23:26:03.106Z,10.11
2023-01-12T23:28:30.253Z,10.16
2023-01-12T23:31:05.601Z,10.18
2023-01-12T23:33:32.437Z,10.08
2023-01-12T23:36:08.184Z,10.12
2023-01-12T23:38:35.133Z,10.07
2023-01-12T23:41:21.395Z,10.16
2023-01-12T23:43:49.893Z,10.17
2023-01-12T23:46:17.484Z,10.21
2023-01-12T23:48:44.085Z,10.18
2023-01-12T23:51:10.792Z,10.18
2023-01-12T23:53:37.311Z,10.16
2023-01-12T23:56:06.305Z,10.13
2023-01-12T23:58:33.751Z,10.23
